Time;durP1;ratioP1;P1;durP2;ratioP2;P2;SDS_P1;SDS_P2;PMS_P1;PMS_P2;Temp;Humidity;BMP_temperature;BMP_pressure;BME280_temperature;BME280_humidity;BME280_pressure;Samples;Min_cycle;Max_cycle;Signal;HPM_P1;HPM_P2
2022/03/16 00:02:10;;;;;;;22.95;14.48;;;8.70;71.20;;;;;;5045472;28;20064;-71
2022/03/16 00:04:36;;;;;;;22.67;14.68;;;8.70;71.20;;;;;;5055067;28;20024;-71
2022/03/16 00:07:02;;;;;;;22.98;14.15;;;8.70;71.20;;;;;;5056282;28;20406;-71
2022/03/16 00:09:27;;;;;;;20.50;13.60;;;8.70;71.30;;;;;;5051316;28;20103;-71
2022/03/16 00:11:53;;;;;;;24.25;14.77;;;8.70;71.30;;;;;;5026744;28;20065;-70
2022/03/16 00:14:18;;;;;;;19.85;13.40;;;8.70;71.30;;;;;;5041770;28;20056;-71
2022/03/16 00:16:44;;;;;;;20.30;12.77;;;8.70;71.30;;;;;;5056128;28;20091;-71
2022/03/16 00:19:09;;;;;;;20.95;13.73;;;8.70;71.30;;;;;;5048337;28;20033;-71
2022/03/16 00:21:35;;;;;;;24.23;14.48;;;8.60;71.20;;;;;;5036386;28;20037;-70
2022/03/16 00:24:01;;;;;;;21.48;14.07;;;8.60;71.30;;;;;;5039103;28;20022;-70
2022/03/16 00:26:27;;;;;;;21.48;13.35;;;8.60;71.30;;;;;;5049004;28;20059;-70
2022/03/16 00:28:53;;;;;;;23.05;15.40;;;8.60;71.40;;;;;;5045618;28;20022;-70
2022/03/16 00:31:19;;;;;;;21.52;13.30;;;8.50;71.40;;;;;;5047973;28;20402;-71
2022/03/16 00:33:45;;;;;;;19.42;13.60;;;8.50;71.40;;;;;;5038506;28;20061;-70
2022/03/16 00:36:11;;;;;;;19.02;12.52;;;8.50;71.40;;;;;;5056885;28;20112;-71
2022/03/16 00:38:36;;;;;;;19.92;14.18;;;8.40;71.40;;;;;;5055251;28;20082;-71
2022/03/16 00:41:02;;;;;;;20.63;13.95;;;8.40;71.40;;;;;;5052629;28;20354;-70
2022/03/16 00:43:29;;;;;;;19.45;14.10;;;8.40;71.50;;;;;;5039447;28;20462;-70
2022/03/16 00:45:55;;;;;;;19.38;14.02;;;8.40;71.40;;;;;;5040476;28;20053;-70
2022/03/16 00:48:20;;;;;;;20.30;13.50;;;8.40;71.40;;;;;;5038760;28;20033;-71
2022/03/16 00:50:46;;;;;;;19.98;13.75;;;8.40;71.50;;;;;;5050783;28;20130;-71
2022/03/16 00:53:11;;;;;;;17.70;13.20;;;8.40;71.50;;;;;;5056396;28;20029;-71
2022/03/16 00:55:37;;;;;;;22.20;14.98;;;8.30;71.50;;;;;;5052362;28;20078;-71
2022/03/16 00:58:03;;;;;;;22.05;13.15;;;8.30;71.50;;;;;;5055464;28;20400;-71
2022/03/16 01:00:28;;;;;;;21.48;13.30;;;8.30;71.50;;;;;;5044811;28;20105;-71
2022/03/16 01:02:55;;;;;;;17.88;13.00;;;8.30;71.50;;;;;;5035322;28;20037;-71
2022/03/16 01:05:21;;;;;;;20.27;14.23;;;8.20;71.40;;;;;;5038292;28;20032;-71
2022/03/16 01:07:47;;;;;;;21.38;13.07;;;8.20;71.50;;;;;;5035171;28;20064;-71
2022/03/16 01:10:12;;;;;;;22.02;14.68;;;8.20;71.50;;;;;;5042891;28;20049;-71
2022/03/16 01:12:38;;;;;;;21.25;14.00;;;8.20;71.50;;;;;;5054402;28;20013;-71
2022/03/16 01:15:05;;;;;;;20.50;13.70;;;8.20;71.50;;;;;;5049722;28;20053;-71
2022/03/16 01:17:33;;;;;;;19.35;12.82;;;8.20;71.50;;;;;;5036232;28;20112;-71
2022/03/16 01:19:59;;;;;;;24.55;15.95;;;8.20;71.60;;;;;;5037581;28;20117;-71
2022/03/16 01:22:24;;;;;;;21.10;14.20;;;8.10;71.60;;;;;;5052666;28;20442;-70
2022/03/16 01:24:50;;;;;;;22.60;15.10;;;8.10;71.60;;;;;;5037497;28;20025;-71
2022/03/16 01:27:16;;;;;;;24.80;14.40;;;8.10;71.60;;;;;;5034817;28;20030;-71
2022/03/16 01:29:42;;;;;;;23.40;14.43;;;8.10;71.60;;;;;;5053649;28;20370;-71
2022/03/16 01:32:08;;;;;;;25.45;14.50;;;8.10;71.60;;;;;;5043449;28;20036;-70
2022/03/16 01:34:35;;;;;;;19.92;13.82;;;8.10;71.60;;;;;;5051453;28;20036;-70
2022/03/16 01:37:01;;;;;;;22.45;14.63;;;8.10;71.60;;;;;;5037688;28;20067;-70
2022/03/16 01:39:27;;;;;;;25.38;15.63;;;8.10;71.60;;;;;;5018235;28;20072;-71
2022/03/16 01:41:53;;;;;;;20.48;14.30;;;8.10;71.60;;;;;;5050718;28;20383;-71
2022/03/16 01:44:45;;;;;;;23.30;15.23;;;8.00;71.50;;;;;;5036897;28;20438;-71
2022/03/16 01:47:11;;;;;;;20.30;14.25;;;8.00;71.60;;;;;;5036988;28;20049;-71
2022/03/16 01:49:38;;;;;;;20.92;14.43;;;8.00;71.60;;;;;;5034460;28;20370;-71
2022/03/16 01:52:05;;;;;;;22.73;14.70;;;7.90;71.50;;;;;;5051005;28;20072;-71
2022/03/16 01:54:30;;;;;;;21.85;15.43;;;7.90;71.70;;;;;;5019355;28;20076;-71
2022/03/16 01:56:57;;;;;;;24.92;15.02;;;7.90;71.90;;;;;;5045905;28;20451;-71
2022/03/16 01:59:22;;;;;;;23.23;16.45;;;7.90;71.60;;;;;;5034262;28;20021;-71
2022/03/16 02:01:48;;;;;;;23.00;15.55;;;7.90;71.70;;;;;;5036806;28;20025;-70
2022/03/16 02:04:13;;;;;;;22.88;15.43;;;7.90;71.80;;;;;;5049007;28;20029;-71
2022/03/16 02:06:39;;;;;;;25.75;17.30;;;7.90;71.90;;;;;;5051079;28;20469;-71
2022/03/16 02:09:05;;;;;;;22.70;15.25;;;7.90;71.90;;;;;;5054390;28;20501;-71
2022/03/16 02:11:30;;;;;;;23.30;15.40;;;7.80;71.80;;;;;;5050910;28;20135;-70
2022/03/16 02:13:57;;;;;;;24.23;16.42;;;7.80;71.90;;;;;;5041288;28;20029;-71
2022/03/16 02:16:22;;;;;;;25.45;16.60;;;7.90;72.00;;;;;;5050152;28;20032;-71
2022/03/16 02:18:49;;;;;;;21.20;15.50;;;7.90;71.90;;;;;;5053975;28;20477;-70
2022/03/16 02:21:16;;;;;;;23.50;16.42;;;7.90;72.00;;;;;;5050031;28;20071;-71
2022/03/16 02:23:42;;;;;;;24.73;16.45;;;7.80;71.90;;;;;;5048955;28;20454;-71
2022/03/16 02:26:12;;;;;;;22.45;16.10;;;7.90;71.90;;;;;;5022515;28;20029;-71
2022/03/16 02:28:38;;;;;;;23.42;16.25;;;7.90;71.90;;;;;;5054807;28;20120;-71
2022/03/16 02:31:04;;;;;;;25.63;16.70;;;7.80;71.90;;;;;;5048110;28;20124;-70
2022/03/16 02:33:30;;;;;;;24.10;16.45;;;7.80;72.00;;;;;;5043074;28;20130;-71
2022/03/16 02:35:56;;;;;;;26.10;17.42;;;7.80;72.00;;;;;;5039699;28;20398;-70
2022/03/16 02:38:22;;;;;;;25.02;17.35;;;7.80;72.10;;;;;;5054205;28;20126;-71
2022/03/16 02:40:48;;;;;;;24.50;16.92;;;7.80;72.10;;;;;;5052322;28;20378;-70
2022/03/16 02:43:14;;;;;;;25.45;18.88;;;7.80;72.20;;;;;;5046177;28;20343;-71
2022/03/16 02:45:40;;;;;;;24.80;16.33;;;7.80;72.20;;;;;;5035486;28;20108;-71
2022/03/16 02:48:06;;;;;;;26.90;16.23;;;7.80;72.10;;;;;;5035635;28;20053;-70
2022/03/16 02:50:32;;;;;;;24.30;16.70;;;7.80;72.20;;;;;;5035205;28;20124;-70
2022/03/16 02:52:57;;;;;;;24.88;17.40;;;7.70;72.20;;;;;;5037730;28;20067;-71
2022/03/16 02:55:23;;;;;;;25.38;16.58;;;7.70;72.20;;;;;;5048767;28;20068;-71
2022/03/16 02:57:48;;;;;;;24.92;16.95;;;7.70;72.20;;;;;;5050232;28;20033;-71
2022/03/16 03:00:15;;;;;;;27.20;19.73;;;7.70;72.20;;;;;;5052601;28;20455;-71
2022/03/16 03:02:41;;;;;;;26.45;18.30;;;7.80;72.40;;;;;;5044945;28;20038;-70
2022/03/16 03:05:07;;;;;;;27.85;18.85;;;7.80;72.50;;;;;;5049186;28;20017;-71
2022/03/16 03:07:33;;;;;;;28.38;17.98;;;7.80;72.60;;;;;;5039657;28;20026;-71
2022/03/16 03:09:59;;;;;;;24.13;17.10;;;7.90;72.80;;;;;;5034484;28;20419;-71
2022/03/16 03:12:24;;;;;;;27.23;17.70;;;7.90;72.90;;;;;;5036970;28;20470;-70
2022/03/16 03:14:50;;;;;;;27.23;19.15;;;7.90;73.00;;;;;;5045054;28;20480;-70
2022/03/16 03:17:16;;;;;;;27.17;19.38;;;8.00;73.10;;;;;;5041198;28;20029;-71
2022/03/16 03:19:43;;;;;;;26.67;20.05;;;8.00;73.10;;;;;;5053333;28;20029;-70
2022/03/16 03:22:09;;;;;;;27.30;19.95;;;8.00;73.20;;;;;;5040828;28;20037;-70
2022/03/16 03:24:35;;;;;;;31.10;20.25;;;7.90;73.20;;;;;;5036260;28;20032;-71
2022/03/16 03:27:01;;;;;;;28.13;20.98;;;7.90;73.20;;;;;;5019983;28;20048;-71
2022/03/16 03:29:27;;;;;;;27.55;20.58;;;7.90;73.30;;;;;;5034451;28;20045;-71
2022/03/16 03:31:53;;;;;;;28.05;20.52;;;8.00;73.40;;;;;;5029282;28;20080;-71
2022/03/16 03:34:18;;;;;;;31.17;20.23;;;8.00;73.40;;;;;;5038589;28;20025;-71
2022/03/16 03:36:44;;;;;;;27.83;20.88;;;8.00;73.40;;;;;;5039757;28;20048;-71
2022/03/16 03:39:10;;;;;;;27.88;19.60;;;8.00;73.40;;;;;;5020439;28;20063;-70
2022/03/16 03:41:36;;;;;;;26.52;19.52;;;8.00;73.40;;;;;;5039373;28;20029;-70
2022/03/16 03:44:01;;;;;;;26.05;19.45;;;8.00;73.40;;;;;;5054362;28;20071;-71
2022/03/16 03:46:27;;;;;;;29.55;21.80;;;8.00;73.50;;;;;;5056718;28;20345;-71
2022/03/16 03:48:53;;;;;;;27.20;21.20;;;8.00;73.40;;;;;;5053830;28;20102;-70
2022/03/16 03:51:19;;;;;;;27.55;20.02;;;8.00;73.50;;;;;;5037880;28;20129;-70
2022/03/16 03:53:44;;;;;;;28.83;20.77;;;8.00;73.50;;;;;;5038033;28;20108;-70
2022/03/16 03:56:10;;;;;;;27.08;20.35;;;8.00;73.60;;;;;;5054254;28;20037;-70
2022/03/16 03:58:37;;;;;;;26.88;20.90;;;8.00;73.50;;;;;;5056683;28;20029;-71
2022/03/16 04:01:03;;;;;;;27.48;19.42;;;8.00;73.50;;;;;;5055542;28;20021;-70
2022/03/16 04:03:29;;;;;;;29.33;21.20;;;8.00;73.50;;;;;;5055242;28;20025;-71
2022/03/16 04:05:55;;;;;;;29.02;21.27;;;8.00;73.50;;;;;;5054871;28;20025;-71
2022/03/16 04:08:20;;;;;;;27.58;20.55;;;7.90;73.50;;;;;;5055042;28;20036;-70
2022/03/16 04:10:46;;;;;;;27.40;20.42;;;7.90;73.50;;;;;;5053129;28;20070;-70
2022/03/16 04:13:11;;;;;;;29.35;21.33;;;7.90;73.60;;;;;;5054829;28;20445;-71
2022/03/16 04:15:37;;;;;;;28.13;19.48;;;7.90;73.70;;;;;;5054178;28;20021;-71
2022/03/16 04:18:03;;;;;;;26.45;20.63;;;7.90;73.80;;;;;;5055033;28;20079;-70
2022/03/16 04:20:28;;;;;;;25.08;19.60;;;7.90;73.80;;;;;;5052182;28;20037;-70
2022/03/16 04:22:54;;;;;;;28.00;20.52;;;7.90;73.80;;;;;;5054930;28;20033;-71
2022/03/16 04:25:20;;;;;;;25.15;18.67;;;7.90;73.90;;;;;;5040193;28;20026;-71
2022/03/16 04:27:45;;;;;;;27.85;20.67;;;7.90;73.90;;;;;;5036241;28;20040;-70
2022/03/16 04:30:11;;;;;;;26.40;20.00;;;7.90;74.00;;;;;;5041013;28;20057;-70
2022/03/16 04:32:38;;;;;;;29.55;20.80;;;7.90;74.00;;;;;;5039586;28;20049;-71
2022/03/16 04:35:04;;;;;;;25.67;18.80;;;7.80;74.00;;;;;;5052309;28;20544;-71
2022/03/16 04:37:30;;;;;;;28.90;20.45;;;7.80;74.10;;;;;;5055184;28;20469;-70
2022/03/16 04:39:55;;;;;;;31.83;20.90;;;7.90;74.90;;;;;;5048959;28;20033;-70
2022/03/16 04:42:21;;;;;;;27.48;20.27;;;7.90;74.20;;;;;;5053358;28;20028;-71
2022/03/16 04:44:46;;;;;;;26.40;19.20;;;7.90;74.30;;;;;;5040700;28;20039;-71
2022/03/16 04:47:12;;;;;;;29.38;21.08;;;7.80;74.20;;;;;;5021620;28;20014;-70
2022/03/16 04:49:38;;;;;;;28.20;19.42;;;7.90;74.30;;;;;;5040778;28;20040;-71
2022/03/16 04:52:03;;;;;;;30.40;20.85;;;7.80;74.20;;;;;;5040395;28;20421;-71
2022/03/16 04:54:29;;;;;;;30.63;19.38;;;7.90;74.30;;;;;;5044570;28;20029;-70
2022/03/16 04:56:56;;;;;;;30.45;20.65;;;7.80;74.30;;;;;;5027805;28;20374;-69
2022/03/16 04:59:22;;;;;;;28.45;19.85;;;7.80;74.30;;;;;;5044271;28;20033;-69
2022/03/16 05:01:47;;;;;;;26.77;18.92;;;7.80;74.40;;;;;;5024996;28;20033;-69
2022/03/16 05:04:13;;;;;;;27.38;19.63;;;7.90;74.40;;;;;;5037577;28;20083;-69
2022/03/16 05:06:39;;;;;;;24.98;18.90;;;7.80;74.40;;;;;;5036787;28;20365;-69
2022/03/16 05:09:05;;;;;;;27.23;18.15;;;7.80;74.40;;;;;;5034534;28;20127;-69
2022/03/16 05:11:30;;;;;;;25.92;19.73;;;7.80;74.40;;;;;;5033130;28;20034;-70
2022/03/16 05:13:58;;;;;;;26.95;18.58;;;7.80;74.40;;;;;;5033459;28;20025;-69
2022/03/16 05:16:24;;;;;;;25.98;17.17;;;7.80;74.40;;;;;;5042899;28;20032;-69
2022/03/16 05:18:50;;;;;;;24.67;18.67;;;7.80;74.40;;;;;;5034645;28;20025;-69
2022/03/16 05:21:15;;;;;;;26.38;18.85;;;7.80;74.30;;;;;;5049106;28;20451;-70
2022/03/16 05:23:41;;;;;;;24.25;16.67;;;7.80;74.40;;;;;;5018924;28;20030;-69
2022/03/16 05:26:07;;;;;;;22.77;16.67;;;7.80;74.40;;;;;;5037997;28;20022;-70
2022/03/16 05:28:33;;;;;;;23.50;17.60;;;7.70;74.40;;;;;;5052527;28;20034;-70
2022/03/16 05:30:58;;;;;;;23.50;17.27;;;7.70;74.40;;;;;;5044762;28;20049;-70
2022/03/16 05:33:24;;;;;;;23.75;16.20;;;7.70;74.40;;;;;;5053957;28;20515;-70
2022/03/16 05:35:50;;;;;;;26.13;17.60;;;7.80;74.40;;;;;;5037602;28;20033;-69
2022/03/16 05:38:16;;;;;;;24.70;17.63;;;7.70;74.40;;;;;;5054118;28;20037;-69
2022/03/16 05:40:43;;;;;;;23.85;17.25;;;7.70;74.40;;;;;;5030643;28;20026;-70
2022/03/16 05:43:10;;;;;;;26.73;18.25;;;7.70;74.40;;;;;;5046327;28;20029;-69
2022/03/16 05:45:36;;;;;;;24.30;18.75;;;7.70;74.60;;;;;;5033569;28;20052;-70
2022/03/16 05:48:02;;;;;;;24.73;17.55;;;7.70;74.50;;;;;;5028922;28;20029;-70
2022/03/16 05:50:28;;;;;;;25.40;18.73;;;7.70;74.60;;;;;;5038451;28;20037;-70
2022/03/16 05:52:58;;;;;;;28.70;19.75;;;7.70;74.60;;;;;;5043047;28;20469;-70
2022/03/16 05:55:25;;;;;;;26.13;19.02;;;7.70;74.60;;;;;;5034875;28;20032;-73
2022/03/16 05:57:50;;;;;;;27.10;19.75;;;7.70;74.60;;;;;;5041363;28;20036;-72
2022/03/16 06:00:18;;;;;;;26.42;18.38;;;7.70;74.60;;;;;;5048058;28;20025;-72
2022/03/16 06:02:45;;;;;;;24.42;18.08;;;7.70;74.50;;;;;;5044852;28;20041;-72
2022/03/16 06:05:11;;;;;;;26.08;17.88;;;7.70;74.50;;;;;;5036592;28;20039;-72
2022/03/16 06:07:37;;;;;;;28.48;20.75;;;7.70;74.60;;;;;;5046442;28;20380;-74
2022/03/16 06:10:08;;;;;;;26.55;19.55;;;7.70;74.50;;;;;;5045374;28;20342;-74
2022/03/16 06:12:33;;;;;;;28.55;18.77;;;7.80;74.60;;;;;;5035587;28;20033;-74
2022/03/16 06:14:59;;;;;;;27.98;19.92;;;7.80;74.60;;;;;;5047240;28;20033;-74
2022/03/16 06:17:24;;;;;;;26.92;20.27;;;7.80;74.50;;;;;;5052487;28;20017;-74
2022/03/16 06:19:50;;;;;;;29.50;20.42;;;7.80;74.60;;;;;;5055469;28;20032;-74
2022/03/16 06:22:16;;;;;;;26.92;19.63;;;7.80;74.60;;;;;;5046441;28;20029;-73
2022/03/16 06:24:41;;;;;;;27.58;19.73;;;7.80;74.60;;;;;;5043379;28;20021;-73
2022/03/16 06:27:07;;;;;;;32.67;21.92;;;7.80;74.60;;;;;;5038266;28;20044;-73
2022/03/16 06:29:33;;;;;;;28.58;20.45;;;7.90;74.60;;;;;;5036936;28;20144;-73
2022/03/16 06:31:59;;;;;;;29.23;21.63;;;7.90;74.60;;;;;;5054327;28;20041;-73
2022/03/16 06:34:25;;;;;;;28.23;19.90;;;7.90;74.60;;;;;;5053226;28;20044;-73
2022/03/16 06:36:51;;;;;;;27.98;20.40;;;7.90;74.60;;;;;;5051792;28;20042;-73
2022/03/16 06:39:16;;;;;;;26.38;20.30;;;7.90;74.60;;;;;;5054941;28;20666;-73
2022/03/16 06:41:43;;;;;;;28.30;20.58;;;7.90;74.60;;;;;;5018731;28;20029;-73
2022/03/16 06:44:09;;;;;;;28.70;19.88;;;7.90;74.60;;;;;;5048544;28;20037;-73
2022/03/16 06:46:35;;;;;;;26.63;20.35;;;7.90;74.50;;;;;;5050206;28;20033;-74
2022/03/16 06:49:01;;;;;;;29.02;19.95;;;8.00;74.50;;;;;;5033876;28;20136;-73
2022/03/16 06:51:26;;;;;;;25.73;19.08;;;8.00;74.50;;;;;;5048754;28;20044;-71
2022/03/16 06:53:52;;;;;;;27.13;19.65;;;8.10;74.60;;;;;;5051759;28;20057;-72
2022/03/16 06:56:18;;;;;;;26.65;18.25;;;8.20;75.10;;;;;;5044512;28;20025;-72
2022/03/16 06:58:43;;;;;;;25.52;18.63;;;8.30;74.10;;;;;;5038742;28;20380;-72
2022/03/16 07:01:09;;;;;;;28.45;19.83;;;8.50;73.90;;;;;;5037054;28;20379;-72
2022/03/16 07:03:34;;;;;;;28.27;19.13;;;8.60;73.50;;;;;;5041967;28;20021;-71
2022/03/16 07:06:00;;;;;;;28.10;19.67;;;8.90;73.10;;;;;;5043924;28;20033;-72
2022/03/16 07:08:26;;;;;;;24.75;19.02;;;9.00;72.60;;;;;;5053911;28;20062;-72
2022/03/16 07:10:51;;;;;;;25.10;19.48;;;9.10;72.30;;;;;;5038530;28;20026;-71
2022/03/16 07:13:17;;;;;;;25.58;20.00;;;9.30;72.10;;;;;;5044702;28;20036;-73
2022/03/16 07:15:44;;;;;;;27.33;20.38;;;9.20;71.80;;;;;;5038445;28;20022;-73
2022/03/16 07:18:11;;;;;;;26.80;19.00;;;9.20;71.90;;;;;;5040477;28;20174;-72
2022/03/16 07:20:37;;;;;;;26.33;20.23;;;9.20;72.10;;;;;;5042068;28;20124;-72
2022/03/16 07:23:09;;;;;;;25.73;18.33;;;9.20;72.10;;;;;;5021163;28;20034;-69
2022/03/16 07:25:39;;;;;;;25.55;17.23;;;9.30;71.90;;;;;;5045667;28;20021;-69
2022/03/16 07:28:06;;;;;;;26.25;18.50;;;9.50;71.60;;;;;;5031142;28;20025;-71
2022/03/16 07:30:32;;;;;;;27.05;19.33;;;9.60;71.30;;;;;;5038640;28;20045;-71
2022/03/16 07:32:58;;;;;;;23.35;17.13;;;9.80;71.00;;;;;;5035869;28;20057;-71
2022/03/16 07:35:28;;;;;;;23.10;17.13;;;9.90;70.80;;;;;;5038078;28;20025;-71
2022/03/16 07:37:58;;;;;;;22.30;17.52;;;10.00;70.60;;;;;;5036603;28;20033;-71
2022/03/16 07:40:24;;;;;;;29.00;17.67;;;10.10;70.30;;;;;;5036667;28;20108;-72
2022/03/16 07:42:57;;;;;;;24.15;18.10;;;10.20;70.10;;;;;;5036849;28;20037;-72
2022/03/16 07:45:23;;;;;;;25.05;16.58;;;10.30;69.90;;;;;;5020435;28;20026;-71
2022/03/16 07:47:52;;;;;;;26.00;17.33;;;10.50;69.50;;;;;;5037206;28;20426;-71
2022/03/16 07:50:18;;;;;;;25.02;16.70;;;10.60;69.20;;;;;;5037738;28;20026;-71
2022/03/16 07:52:46;;;;;;;24.08;15.75;;;10.80;68.90;;;;;;5057536;28;20051;-71
2022/03/16 07:55:16;;;;;;;21.17;15.65;;;10.90;68.60;;;;;;5056719;28;20040;-71
2022/03/16 07:57:43;;;;;;;20.83;15.60;;;11.00;68.30;;;;;;5057487;28;20029;-71
2022/03/16 08:00:13;;;;;;;22.42;15.65;;;11.10;68.00;;;;;;5057837;28;20090;-71
2022/03/16 08:02:40;;;;;;;20.30;13.85;;;11.30;67.60;;;;;;5057402;28;20074;-71
2022/03/16 08:05:06;;;;;;;25.95;16.08;;;11.40;67.30;;;;;;5056291;28;20025;-71
2022/03/16 08:07:32;;;;;;;23.08;15.70;;;11.50;67.00;;;;;;5038469;28;20345;-71
2022/03/16 08:09:58;;;;;;;19.80;14.18;;;11.60;66.70;;;;;;5036740;28;20092;-71
2022/03/16 08:12:24;;;;;;;22.38;15.32;;;11.80;66.30;;;;;;5036053;28;20374;-71
2022/03/16 08:14:50;;;;;;;21.33;15.18;;;12.10;65.80;;;;;;5036260;28;20057;-72
2022/03/16 08:17:17;;;;;;;21.23;15.02;;;12.30;65.40;;;;;;5036181;28;20431;-71
2022/03/16 08:19:42;;;;;;;19.40;13.82;;;12.50;64.80;;;;;;5019939;28;20030;-71
2022/03/16 08:22:08;;;;;;;19.08;12.85;;;12.70;64.50;;;;;;5052943;28;20037;-71
2022/03/16 08:24:34;;;;;;;21.13;13.43;;;12.90;64.00;;;;;;5056572;28;20029;-71
2022/03/16 08:26:59;;;;;;;18.73;12.20;;;13.00;63.40;;;;;;5057415;28;20033;-71
2022/03/16 08:29:25;;;;;;;17.45;12.50;;;13.20;63.00;;;;;;5057133;28;20025;-69
2022/03/16 08:31:51;;;;;;;17.50;11.48;;;13.40;62.40;;;;;;5055672;28;20053;-69
2022/03/16 08:34:20;;;;;;;16.77;11.63;;;13.60;62.10;;;;;;5039474;28;20408;-69
2022/03/16 08:36:46;;;;;;;18.50;11.25;;;13.80;61.50;;;;;;5056981;28;20025;-70
2022/03/16 08:39:11;;;;;;;17.50;11.35;;;14.00;61.10;;;;;;5039294;28;20033;-69
2022/03/16 08:41:37;;;;;;;17.30;11.30;;;14.20;60.60;;;;;;5035661;28;20091;-70
2022/03/16 08:44:03;;;;;;;15.45;10.30;;;14.10;60.30;;;;;;5019462;28;20099;-69
2022/03/16 08:46:29;;;;;;;17.00;9.90;;;13.90;60.20;;;;;;5036790;28;20033;-69
2022/03/16 08:48:55;;;;;;;13.20;8.38;;;13.70;60.30;;;;;;5036919;28;20044;-69
2022/03/16 08:51:21;;;;;;;13.10;9.35;;;13.50;60.50;;;;;;5044615;28;20342;-72
2022/03/16 08:53:46;;;;;;;15.43;9.70;;;13.40;60.50;;;;;;5039013;28;20071;-69
2022/03/16 08:56:13;;;;;;;14.98;9.25;;;13.30;60.70;;;;;;5056802;28;20092;-69
2022/03/16 08:58:38;;;;;;;12.85;8.50;;;13.20;60.60;;;;;;5054921;28;20412;-69
2022/03/16 09:01:05;;;;;;;12.88;7.93;;;13.20;60.50;;;;;;5035398;28;20068;-69
2022/03/16 09:03:31;;;;;;;12.50;8.52;;;13.20;60.40;;;;;;5019189;28;20037;-71
2022/03/16 09:05:57;;;;;;;13.57;8.18;;;13.20;60.20;;;;;;5036569;28;20026;-72
2022/03/16 09:08:22;;;;;;;14.52;8.25;;;13.20;60.10;;;;;;5037091;28;20397;-71
2022/03/16 09:10:48;;;;;;;14.60;9.02;;;13.30;59.80;;;;;;5019192;28;20026;-71
2022/03/16 09:13:17;;;;;;;13.05;8.88;;;13.40;59.50;;;;;;5035539;28;20120;-71
2022/03/16 09:15:44;;;;;;;16.13;9.60;;;13.50;59.20;;;;;;5035308;28;20030;-71
2022/03/16 09:18:10;;;;;;;15.50;9.15;;;13.60;59.00;;;;;;5036215;28;20034;-69
2022/03/16 09:20:39;;;;;;;14.02;8.18;;;13.70;58.70;;;;;;5038929;28;20084;-69
2022/03/16 09:23:05;;;;;;;13.60;8.43;;;13.90;58.50;;;;;;5038101;28;20036;-71
2022/03/16 09:25:31;;;;;;;14.43;8.68;;;14.00;58.30;;;;;;5055671;28;20369;-70
2022/03/16 09:27:57;;;;;;;13.52;8.45;;;13.90;58.10;;;;;;5054987;28;20427;-69
2022/03/16 09:30:24;;;;;;;13.70;8.52;;;13.90;58.10;;;;;;5054470;28;20060;-69
2022/03/16 09:32:50;;;;;;;15.25;8.60;;;13.90;58.10;;;;;;5055909;28;20489;-69
2022/03/16 09:35:16;;;;;;;14.02;8.05;;;13.90;57.80;;;;;;5055911;28;20091;-69
2022/03/16 09:37:41;;;;;;;14.57;8.00;;;14.00;57.70;;;;;;5052987;28;20386;-69
2022/03/16 09:40:08;;;;;;;13.30;7.63;;;14.20;57.50;;;;;;5055277;28;20025;-69
2022/03/16 09:42:34;;;;;;;14.02;8.52;;;14.30;57.10;;;;;;5055586;28;20086;-69
2022/03/16 09:45:03;;;;;;;13.55;8.50;;;14.50;56.70;;;;;;5054329;28;20029;-69
2022/03/16 09:47:30;;;;;;;12.10;7.80;;;14.60;56.50;;;;;;5055309;28;20074;-70
2022/03/16 09:49:56;;;;;;;12.80;8.38;;;14.80;56.20;;;;;;5053673;28;20096;-69
2022/03/16 09:52:26;;;;;;;12.45;8.00;;;15.00;55.80;;;;;;5054817;28;20116;-69
2022/03/16 09:54:53;;;;;;;13.25;7.82;;;15.10;55.60;;;;;;5042299;28;20040;-70
2022/03/16 09:57:19;;;;;;;13.48;8.35;;;15.30;55.40;;;;;;5036348;28;20028;-70
2022/03/16 09:59:45;;;;;;;12.20;7.78;;;15.40;55.10;;;;;;5034487;28;20410;-70
2022/03/16 10:02:16;;;;;;;14.02;8.73;;;15.40;54.70;;;;;;5035487;28;20033;-69
2022/03/16 10:04:42;;;;;;;15.45;9.75;;;15.40;54.60;;;;;;5046943;28;20037;-69
2022/03/16 10:07:08;;;;;;;13.63;8.60;;;15.30;54.60;;;;;;5037020;28;20025;-70
2022/03/16 10:15:10;;;;;;;12.68;7.38;;;15.50;54.30;;;;;;5035086;28;20417;-70
2022/03/16 10:17:46;;;;;;;12.82;7.53;;;15.70;54.30;;;;;;5035024;28;20044;-69
2022/03/16 10:20:21;;;;;;;12.68;7.60;;;15.80;54.10;;;;;;5041777;28;20389;-70
2022/03/16 10:22:59;;;;;;;12.48;7.88;;;15.80;53.80;;;;;;5050827;28;20028;-70
2022/03/16 10:25:27;;;;;;;14.98;8.60;;;15.90;53.60;;;;;;5040173;28;20025;-70
2022/03/16 10:27:53;;;;;;;11.80;7.80;;;16.00;53.60;;;;;;5034429;28;20052;-70
2022/03/16 10:30:20;;;;;;;13.43;8.40;;;16.10;53.50;;;;;;5026394;28;20049;-70
2022/03/16 10:32:55;;;;;;;13.30;9.38;;;16.20;53.30;;;;;;5046800;28;20029;-70
2022/03/16 10:35:23;;;;;;;12.43;8.27;;;16.20;52.80;;;;;;5020797;28;20091;-70
2022/03/16 10:37:49;;;;;;;11.90;7.88;;;16.20;52.90;;;;;;5052080;28;20020;-70
2022/03/16 10:40:20;;;;;;;13.60;8.70;;;16.30;52.90;;;;;;5039993;28;20051;-69
2022/03/16 10:48:20;;;;;;;12.40;8.15;;;16.30;52.60;;;;;;5036080;28;20129;-72
2022/03/16 10:50:48;;;;;;;13.43;8.73;;;16.40;52.50;;;;;;5040160;28;20040;-71
2022/03/16 10:53:16;;;;;;;13.75;7.93;;;16.40;52.40;;;;;;5044980;28;20045;-71
2022/03/16 10:55:43;;;;;;;12.10;8.02;;;16.40;52.30;;;;;;5041394;28;20025;-71
2022/03/16 10:58:11;;;;;;;13.93;8.35;;;16.50;52.20;;;;;;5042230;28;20450;-70
2022/03/16 11:00:38;;;;;;;12.93;8.50;;;16.60;52.00;;;;;;5046661;28;20096;-70
2022/03/16 11:03:07;;;;;;;11.93;7.70;;;16.50;51.80;;;;;;5052826;28;20036;-70
2022/03/16 11:05:37;;;;;;;14.52;8.52;;;16.50;51.80;;;;;;5052274;28;20043;-70
2022/03/16 11:08:07;;;;;;;11.73;7.72;;;16.60;51.60;;;;;;5043327;28;20026;-70
2022/03/16 11:10:41;;;;;;;13.93;9.15;;;16.60;51.60;;;;;;5047339;28;20035;-69
2022/03/16 11:15:54;;;;;;;11.90;7.80;;;16.70;51.70;;;;;;5052524;28;20033;-68
2022/03/16 11:18:20;;;;;;;12.85;8.48;;;16.70;51.40;;;;;;5043382;28;20091;-68
2022/03/16 11:20:48;;;;;;;13.30;8.57;;;16.80;51.10;;;;;;5047534;28;20035;-67
2022/03/16 11:26:06;;;;;;;12.25;7.32;;;17.00;50.70;;;;;;5020154;28;20390;-69
2022/03/16 11:28:53;;;;;;;11.57;7.35;;;17.00;50.50;;;;;;5033467;28;20064;-69
2022/03/16 11:31:25;;;;;;;11.38;6.80;;;17.00;50.30;;;;;;5024327;28;20091;-70
2022/03/16 11:33:53;;;;;;;11.23;7.00;;;17.10;50.00;;;;;;5038310;28;20029;-69
2022/03/16 11:36:34;;;;;;;10.80;6.55;;;17.10;49.60;;;;;;5040833;28;20025;-70
2022/03/16 11:39:02;;;;;;;10.48;6.35;;;17.10;49.10;;;;;;5042078;28;20080;-69
2022/03/16 11:41:29;;;;;;;10.35;6.25;;;17.20;49.20;;;;;;5035322;28;20095;-69
2022/03/16 11:44:24;;;;;;;12.50;7.47;;;17.20;49.00;;;;;;5051443;28;20409;-67
2022/03/16 11:46:50;;;;;;;10.50;6.90;;;17.20;48.60;;;;;;5032661;28;20216;-70
2022/03/16 11:49:26;;;;;;;11.55;6.57;;;17.20;48.80;;;;;;5036342;28;20089;-69
2022/03/16 11:52:03;;;;;;;10.73;6.40;;;17.20;48.60;;;;;;5044685;28;20029;-71
2022/03/16 11:54:46;;;;;;;11.18;5.97;;;17.00;48.20;;;;;;5040674;28;20124;-69
2022/03/16 11:57:14;;;;;;;10.70;6.63;;;16.90;48.10;;;;;;5058110;28;20049;-69
2022/03/16 11:59:47;;;;;;;9.68;5.95;;;16.90;48.30;;;;;;5055696;28;20108;-70
2022/03/16 12:02:25;;;;;;;9.43;5.80;;;16.90;48.10;;;;;;5047564;28;20128;-70
2022/03/16 12:04:57;;;;;;;9.90;6.22;;;16.90;47.90;;;;;;5050771;28;20181;-69
2022/03/16 12:07:25;;;;;;;10.57;6.72;;;16.90;48.10;;;;;;5053388;28;20025;-69
2022/03/16 12:09:54;;;;;;;10.73;6.53;;;16.90;48.30;;;;;;5052003;28;20033;-69
2022/03/16 12:15:05;;;;;;;12.05;7.25;;;16.60;48.50;;;;;;5055933;28;20091;-69
2022/03/16 12:17:32;;;;;;;11.82;7.43;;;16.50;48.70;;;;;;5037406;28;20039;-69
2022/03/16 12:20:16;;;;;;;11.18;7.40;;;16.50;49.30;;;;;;5046294;28;20096;-69
2022/03/16 12:22:46;;;;;;;11.93;7.32;;;16.50;48.60;;;;;;5038339;28;20036;-69
2022/03/16 12:25:27;;;;;;;11.77;6.93;;;16.50;48.60;;;;;;5043465;28;20021;-69
2022/03/16 12:31:13;;;;;;;11.45;6.63;;;16.50;48.60;;;;;;5046264;28;20050;-70
2022/03/16 12:33:41;;;;;;;12.57;6.35;;;16.40;48.70;;;;;;5036078;28;20029;-70
2022/03/16 12:36:15;;;;;;;11.02;6.68;;;16.30;48.80;;;;;;5045041;28;20075;-71
2022/03/16 12:38:47;;;;;;;9.60;6.00;;;16.40;48.80;;;;;;5055981;28;20044;-71
2022/03/16 12:44:01;;;;;;;11.48;6.53;;;16.40;48.90;;;;;;5056520;28;20063;-70
2022/03/16 12:46:35;;;;;;;11.13;6.70;;;16.50;48.80;;;;;;5055299;28;20036;-71
2022/03/16 12:49:06;;;;;;;12.10;7.07;;;16.60;48.80;;;;;;5056327;28;20108;-71
2022/03/16 12:51:40;;;;;;;12.18;6.93;;;16.60;48.70;;;;;;5047883;28;20052;-71
2022/03/16 12:54:07;;;;;;;11.50;6.85;;;16.50;48.80;;;;;;5055201;28;20036;-71
2022/03/16 12:56:40;;;;;;;11.00;6.40;;;16.40;48.90;;;;;;5055185;28;20025;-70
2022/03/16 12:59:06;;;;;;;10.18;5.85;;;16.30;49.00;;;;;;5053057;28;20043;-71
2022/03/16 13:01:32;;;;;;;9.45;5.75;;;16.20;49.20;;;;;;5036208;28;20052;-72